Blacon, United Kingdom
Current Conditions -  °F | °C
As of 1:50 PM on Sunday 23 Nov 2014 (Local Time) from EGNR Reporting Station
Scattered Clouds Scattered Clouds  
Wind Chill: 50°   Ceiling: Unl
Heat Index: 50°   Visibility: 6mi
Dew Point: 39°   Wind: 10mph
Humidity: 66%   Direction: 320°NW
Pressure: 30.06"   Gusts: NA
Location:  53.21°N, 2.93°W
Report Text: EGNR 231350Z 32009KT 9999 SCT025 10/04 Q1018
Loading
Personal Weather Stations






























Interactive Weather Map New forecast layout! Learn more

10-Day Weather Forecast

Advertisements
Track Severe Weather on mobile